Time;durP1;ratioP1;P1;durP2;ratioP2;P2;SDS_P1;SDS_P2;PMS_P1;PMS_P2;Temp;Humidity;BMP_temperature;BMP_pressure;BME280_temperature;BME280_humidity;BME280_pressure;Samples;Min_cycle;Max_cycle;Signal;HPM_P1;HPM_P2
2021/08/21 00:01:43;;;;;;;7.77;5.93;;;15.30;99.90;;;;;;5074749;28;20180;-90
2021/08/21 00:04:12;;;;;;;7.00;6.00;;;15.20;99.90;;;;;;5074742;28;20546;-90
2021/08/21 00:06:38;;;;;;;7.23;6.13;;;15.20;99.90;;;;;;5074741;28;20283;-90
2021/08/21 00:09:04;;;;;;;9.43;6.70;;;15.20;99.90;;;;;;5073721;28;20181;-90
2021/08/21 00:11:30;;;;;;;6.73;5.70;;;15.20;99.90;;;;;;5075643;28;20205;-90
2021/08/21 00:13:56;;;;;;;7.97;5.70;;;15.20;99.90;;;;;;5074492;28;20183;-90
2021/08/21 00:16:22;;;;;;;11.33;5.60;;;15.20;99.90;;;;;;5074305;28;20173;-90
2021/08/21 00:18:47;;;;;;;8.73;6.57;;;15.10;99.90;;;;;;5074399;28;20173;-90
2021/08/21 00:21:13;;;;;;;10.90;5.93;;;15.10;99.90;;;;;;5074586;28;20184;-90
2021/08/21 00:23:43;;;;;;;7.70;5.80;;;15.10;99.90;;;;;;5074214;28;20642;-90
2021/08/21 00:26:09;;;;;;;6.93;5.70;;;15.10;99.90;;;;;;5075772;28;20176;-89
2021/08/21 00:28:35;;;;;;;8.33;5.87;;;15.10;99.90;;;;;;5074313;28;20226;-90
2021/08/21 00:31:01;;;;;;;6.30;5.37;;;15.00;99.90;;;;;;5075373;28;20197;-90
2021/08/21 00:33:26;;;;;;;7.63;5.83;;;15.00;99.90;;;;;;5074058;28;20173;-90
2021/08/21 00:35:52;;;;;;;6.30;5.60;;;15.00;99.90;;;;;;5075151;28;20567;-90
2021/08/21 00:38:17;;;;;;;6.63;5.73;;;15.00;99.90;;;;;;5075444;28;20189;-90
2021/08/21 00:40:43;;;;;;;6.57;5.30;;;15.00;99.90;;;;;;5074427;28;20653;-90
2021/08/21 00:43:10;;;;;;;7.33;5.30;;;14.90;99.90;;;;;;5074094;28;20173;-90
2021/08/21 00:45:35;;;;;;;5.40;4.87;;;14.90;99.90;;;;;;5075571;28;20177;-90
2021/08/21 00:48:02;;;;;;;6.70;5.07;;;14.90;99.90;;;;;;5073990;28;20226;-90
2021/08/21 00:50:28;;;;;;;7.93;5.93;;;14.80;99.90;;;;;;5075263;28;20189;-90
2021/08/21 00:52:53;;;;;;;7.23;5.83;;;14.80;99.90;;;;;;5074917;28;20169;-90
2021/08/21 00:55:19;;;;;;;8.60;5.50;;;14.80;99.90;;;;;;5075271;28;20180;-90
2021/08/21 00:57:45;;;;;;;8.07;5.70;;;14.80;99.90;;;;;;5078899;28;20335;-90
2021/08/21 01:00:11;;;;;;;6.57;5.47;;;14.70;99.90;;;;;;5073486;28;20184;-90
2021/08/21 01:02:38;;;;;;;9.00;6.07;;;14.70;99.90;;;;;;5074546;28;20176;-89
2021/08/21 01:05:06;;;;;;;7.20;5.93;;;14.60;99.90;;;;;;5073485;28;20172;-90
2021/08/21 01:07:34;;;;;;;9.43;6.10;;;14.60;99.90;;;;;;5073311;28;20218;-90
2021/08/21 01:10:05;;;;;;;8.10;6.47;;;14.60;99.90;;;;;;5073506;28;20226;-90
2021/08/21 01:12:31;;;;;;;6.97;5.90;;;14.60;99.90;;;;;;5074349;28;20205;-90
2021/08/21 01:14:57;;;;;;;7.70;6.27;;;14.50;99.90;;;;;;5074894;28;20649;-90
2021/08/21 01:17:23;;;;;;;8.80;6.20;;;14.50;99.90;;;;;;5073475;28;20774;-90
2021/08/21 01:19:51;;;;;;;6.40;5.70;;;14.50;99.90;;;;;;5073484;28;20208;-90
2021/08/21 01:22:25;;;;;;;7.73;6.67;;;14.50;99.90;;;;;;5077232;28;20204;-90
2021/08/21 01:24:53;;;;;;;8.77;6.17;;;14.50;99.90;;;;;;5077400;28;20175;-90
2021/08/21 01:27:31;;;;;;;8.47;6.73;;;14.50;99.90;;;;;;5077423;28;20204;-90
2021/08/21 01:29:57;;;;;;;7.70;6.50;;;14.50;99.90;;;;;;5077891;28;20263;-90
2021/08/21 01:32:23;;;;;;;9.20;6.27;;;14.50;99.90;;;;;;5076856;28;20235;-90
2021/08/21 01:34:50;;;;;;;7.30;6.33;;;14.40;99.90;;;;;;5078560;28;20165;-90
2021/08/21 01:37:20;;;;;;;8.00;6.20;;;14.40;99.90;;;;;;5077012;28;20192;-90
2021/08/21 01:39:47;;;;;;;8.20;6.60;;;14.30;99.90;;;;;;5077145;28;20214;-90
2021/08/21 01:42:14;;;;;;;8.93;6.60;;;14.30;99.90;;;;;;5078363;28;20634;-90
2021/08/21 01:44:41;;;;;;;7.77;6.07;;;14.30;99.90;;;;;;5076901;28;20184;-90
2021/08/21 01:47:08;;;;;;;7.33;6.33;;;14.20;99.90;;;;;;5077085;28;20199;-90
2021/08/21 01:49:35;;;;;;;10.33;6.53;;;14.30;99.90;;;;;;5078374;28;20173;-90
2021/08/21 01:52:02;;;;;;;7.90;6.60;;;14.30;99.90;;;;;;5077164;28;20223;-90
2021/08/21 01:54:27;;;;;;;8.23;6.50;;;14.30;99.90;;;;;;5076862;28;20176;-90
2021/08/21 01:56:57;;;;;;;10.00;5.97;;;14.30;99.90;;;;;;5078004;28;20184;-90
2021/08/21 01:59:34;;;;;;;7.73;6.47;;;14.30;99.90;;;;;;5077127;28;20199;-90
2021/08/21 02:02:00;;;;;;;7.30;6.03;;;14.30;99.90;;;;;;5078510;28;20188;-90
2021/08/21 02:04:27;;;;;;;10.60;7.20;;;14.30;99.90;;;;;;5076418;28;20205;-89
2021/08/21 02:06:53;;;;;;;7.97;6.80;;;14.30;99.90;;;;;;5077918;28;20197;-89
2021/08/21 02:09:21;;;;;;;9.33;6.43;;;14.30;99.90;;;;;;5076449;28;20668;-89
2021/08/21 02:11:48;;;;;;;9.60;6.80;;;14.30;99.90;;;;;;5076568;28;20207;-90
2021/08/21 02:14:15;;;;;;;14.43;8.83;;;14.30;99.90;;;;;;5076257;28;20221;-90
2021/08/21 02:16:41;;;;;;;8.23;6.83;;;14.20;99.90;;;;;;5076516;28;20241;-90
2021/08/21 02:19:06;;;;;;;8.60;6.67;;;14.20;99.90;;;;;;5076410;28;20327;-90
2021/08/21 02:21:33;;;;;;;8.37;6.60;;;14.20;99.90;;;;;;5076364;28;20675;-90
2021/08/21 02:23:59;;;;;;;8.93;6.63;;;14.10;99.90;;;;;;5077399;28;20196;-90
2021/08/21 02:26:26;;;;;;;8.50;6.77;;;14.10;99.90;;;;;;5077411;28;20563;-89
2021/08/21 02:28:53;;;;;;;8.07;7.03;;;14.10;99.90;;;;;;5077681;28;20184;-89
2021/08/21 02:31:18;;;;;;;9.13;7.47;;;14.10;99.90;;;;;;5077092;28;20226;-90
2021/08/21 02:33:44;;;;;;;14.10;7.23;;;14.10;99.90;;;;;;5076681;28;20247;-90
2021/08/21 02:36:10;;;;;;;9.67;7.30;;;14.10;99.90;;;;;;5076108;28;20184;-89
2021/08/21 02:38:36;;;;;;;9.37;7.13;;;14.10;99.90;;;;;;5076083;28;20180;-89
2021/08/21 02:41:01;;;;;;;11.43;7.37;;;14.00;99.90;;;;;;5076193;28;20259;-89
2021/08/21 02:43:27;;;;;;;10.33;7.50;;;14.00;99.90;;;;;;5077270;28;20187;-89
2021/08/21 02:45:53;;;;;;;8.53;6.93;;;14.00;99.90;;;;;;5076915;28;20172;-89
2021/08/21 02:48:19;;;;;;;8.70;7.33;;;13.90;99.90;;;;;;5075812;28;20197;-89
2021/08/21 02:50:44;;;;;;;11.40;7.20;;;13.90;99.90;;;;;;5075769;28;20173;-89
2021/08/21 02:53:10;;;;;;;9.47;7.63;;;13.80;99.90;;;;;;5075542;28;20176;-89
2021/08/21 02:55:36;;;;;;;12.73;7.53;;;13.80;99.90;;;;;;5075906;28;20214;-89
2021/08/21 02:58:01;;;;;;;9.73;7.77;;;13.70;99.90;;;;;;5076185;28;20295;-89
2021/08/21 03:00:27;;;;;;;10.20;6.80;;;13.70;99.90;;;;;;5075997;28;20178;-89
2021/08/21 03:02:52;;;;;;;12.67;7.23;;;13.70;99.90;;;;;;5076868;28;20176;-89
2021/08/21 03:05:18;;;;;;;9.17;7.53;;;13.70;99.90;;;;;;5077123;28;20168;-89
2021/08/21 03:07:44;;;;;;;11.30;7.57;;;13.70;99.90;;;;;;5075654;28;20197;-89
2021/08/21 03:10:10;;;;;;;7.97;6.73;;;13.70;99.90;;;;;;5076192;28;20211;-89
2021/08/21 03:12:35;;;;;;;8.43;7.07;;;13.70;99.90;;;;;;5077016;28;20570;-89
2021/08/21 03:15:02;;;;;;;9.03;7.20;;;13.80;99.90;;;;;;5078688;28;20210;-89
2021/08/21 03:17:28;;;;;;;11.33;7.30;;;13.80;99.90;;;;;;5077504;28;20201;-89
2021/08/21 03:19:53;;;;;;;10.47;6.97;;;13.80;99.90;;;;;;5080630;28;20220;-89
2021/08/21 03:22:19;;;;;;;9.37;7.43;;;;;;;;;;5075272;28;20177;-89
2021/08/21 03:24:45;;;;;;;9.43;7.50;;;13.80;99.90;;;;;;5076175;28;20239;-89
2021/08/21 03:27:11;;;;;;;10.23;6.83;;;13.80;99.90;;;;;;5076642;28;20582;-89
2021/08/21 03:29:37;;;;;;;9.30;7.60;;;13.80;99.90;;;;;;5075051;28;20189;-89
2021/08/21 03:32:03;;;;;;;11.57;7.40;;;13.70;99.90;;;;;;5075442;28;20200;-89
2021/08/21 03:34:29;;;;;;;8.57;7.00;;;13.70;99.90;;;;;;5075230;28;20177;-89
2021/08/21 03:36:55;;;;;;;12.77;6.90;;;13.70;99.90;;;;;;5075390;28;20197;-89
2021/08/21 03:39:21;;;;;;;9.10;7.13;;;13.70;99.90;;;;;;5074719;28;20199;-89
2021/08/21 03:41:47;;;;;;;8.67;7.17;;;13.70;99.90;;;;;;5074790;28;20187;-89
2021/08/21 03:44:13;;;;;;;9.53;7.23;;;13.70;99.90;;;;;;5073838;28;20200;-89
2021/08/21 03:46:39;;;;;;;9.47;7.30;;;13.70;99.90;;;;;;5075116;28;20326;-89
2021/08/21 03:49:04;;;;;;;9.37;6.70;;;13.70;99.90;;;;;;5076038;28;20177;-89
2021/08/21 03:51:30;;;;;;;8.90;6.67;;;13.70;99.90;;;;;;5075328;28;20203;-89
2021/08/21 03:53:56;;;;;;;12.60;7.60;;;13.70;99.90;;;;;;5074837;28;20181;-89
2021/08/21 03:56:22;;;;;;;8.47;7.17;;;13.60;99.90;;;;;;5074843;28;20184;-89
2021/08/21 03:58:47;;;;;;;8.83;7.23;;;13.60;99.90;;;;;;5074979;28;20190;-89
2021/08/21 04:01:13;;;;;;;12.07;8.00;;;13.70;99.90;;;;;;5075083;28;20184;-89
2021/08/21 04:03:39;;;;;;;10.57;7.97;;;13.60;99.90;;;;;;5075008;28;20767;-89
2021/08/21 04:06:07;;;;;;;8.07;7.13;;;13.60;99.90;;;;;;5074931;28;20229;-89
2021/08/21 04:08:33;;;;;;;11.20;7.17;;;13.60;99.90;;;;;;5074919;28;20188;-89
2021/08/21 04:10:59;;;;;;;8.63;6.43;;;13.60;99.90;;;;;;5075410;28;20231;-89
2021/08/21 04:13:25;;;;;;;9.50;7.77;;;13.60;99.90;;;;;;5074888;28;20196;-89
2021/08/21 04:15:50;;;;;;;9.30;7.73;;;13.60;99.90;;;;;;5074892;28;20187;-89
2021/08/21 04:18:16;;;;;;;10.87;6.67;;;13.60;99.90;;;;;;5075798;28;20705;-89
2021/08/21 04:20:42;;;;;;;11.27;7.33;;;13.60;99.90;;;;;;5075068;28;20169;-89
2021/08/21 04:23:08;;;;;;;9.07;7.60;;;13.60;99.90;;;;;;5074506;28;20172;-89
2021/08/21 04:25:33;;;;;;;8.67;7.30;;;13.60;99.90;;;;;;5075393;28;20173;-89
2021/08/21 04:27:59;;;;;;;8.67;6.83;;;13.60;99.90;;;;;;5074922;28;20193;-89
2021/08/21 04:30:25;;;;;;;9.37;7.30;;;;;;;;;;5076655;28;20181;-89
2021/08/21 04:32:51;;;;;;;9.63;7.13;;;13.60;99.90;;;;;;5075290;28;20264;-89
2021/08/21 04:35:17;;;;;;;7.77;6.70;;;;;;;;;;5076397;28;20278;-89
2021/08/21 04:37:42;;;;;;;12.30;7.10;;;13.60;99.90;;;;;;5076947;28;20293;-89
2021/08/21 04:40:09;;;;;;;10.30;8.17;;;13.60;99.90;;;;;;5077067;28;20192;-89
2021/08/21 04:42:34;;;;;;;10.10;7.17;;;13.60;99.90;;;;;;5075892;28;20268;-89
2021/08/21 04:45:00;;;;;;;11.23;7.70;;;13.50;99.90;;;;;;5075072;28;20219;-89
2021/08/21 04:47:27;;;;;;;9.73;7.73;;;13.50;99.90;;;;;;5076675;28;20267;-89
2021/08/21 04:49:53;;;;;;;9.53;7.03;;;13.50;99.90;;;;;;5075645;28;20184;-89
2021/08/21 04:52:19;;;;;;;7.60;6.50;;;13.50;99.90;;;;;;5076649;28;20596;-90
2021/08/21 04:54:45;;;;;;;8.83;6.80;;;;;;;;;;5074918;28;20173;-89
2021/08/21 04:57:11;;;;;;;10.30;7.63;;;;;;;;;;5074977;28;20223;-89
2021/08/21 04:59:37;;;;;;;9.20;7.20;;;;;;;;;;5076327;28;20211;-89
2021/08/21 05:02:03;;;;;;;9.53;6.83;;;13.50;99.90;;;;;;5075110;28;20271;-89
2021/08/21 05:04:29;;;;;;;8.10;6.60;;;;;;;;;;5074717;28;20654;-88
2021/08/21 05:06:55;;;;;;;9.47;7.20;;;13.50;99.90;;;;;;5074829;28;20205;-89
2021/08/21 05:09:21;;;;;;;7.90;6.63;;;13.50;99.90;;;;;;5076129;28;20703;-89
2021/08/21 05:11:46;;;;;;;11.60;6.70;;;13.50;99.90;;;;;;5074573;28;20715;-89
2021/08/21 05:14:12;;;;;;;8.00;6.63;;;;;;;;;;5075681;28;20176;-89
2021/08/21 05:16:42;;;;;;;9.17;6.70;;;13.60;99.90;;;;;;5075379;28;20192;-88
2021/08/21 05:19:13;;;;;;;9.47;6.80;;;13.60;99.90;;;;;;5075848;28;20211;-89
2021/08/21 05:21:48;;;;;;;8.10;6.27;;;13.60;99.90;;;;;;5089715;28;20230;-88
2021/08/21 05:24:14;;;;;;;8.23;6.47;;;13.60;99.90;;;;;;5075745;28;20633;-88
2021/08/21 05:26:40;;;;;;;7.97;6.20;;;13.60;99.90;;;;;;5075349;28;20200;-88
2021/08/21 05:29:06;;;;;;;10.13;6.43;;;13.60;99.90;;;;;;5075291;28;20181;-89
2021/08/21 05:31:32;;;;;;;9.97;6.27;;;;;;;;;;5075096;28;20236;-89
2021/08/21 05:33:58;;;;;;;9.10;5.87;;;13.70;99.90;;;;;;5076728;28;20184;-89
2021/08/21 05:36:24;;;;;;;8.90;6.40;;;13.80;99.90;;;;;;5077241;28;20177;-89
2021/08/21 05:38:49;;;;;;;7.60;6.17;;;13.80;99.90;;;;;;5076522;28;20550;-89
2021/08/21 05:41:15;;;;;;;8.47;6.33;;;13.80;99.90;;;;;;5081238;28;20173;-90
2021/08/21 05:43:41;;;;;;;8.27;6.37;;;13.80;99.90;;;;;;5076300;28;20188;-90
2021/08/21 05:46:06;;;;;;;8.97;6.73;;;13.80;99.90;;;;;;5079253;28;20181;-90
2021/08/21 05:48:32;;;;;;;7.00;6.10;;;13.90;99.90;;;;;;5075412;28;20199;-90
2021/08/21 05:50:57;;;;;;;7.47;5.90;;;13.90;99.90;;;;;;5075222;28;20200;-90
2021/08/21 05:53:23;;;;;;;10.13;6.80;;;13.90;99.90;;;;;;5075998;28;20538;-90
2021/08/21 05:55:49;;;;;;;8.87;5.60;;;14.00;99.90;;;;;;5080198;28;20729;-89
2021/08/21 05:58:14;;;;;;;8.97;6.10;;;14.00;99.90;;;;;;5074635;28;20193;-89
2021/08/21 06:00:40;;;;;;;7.13;5.60;;;;;;;;;;5074903;28;20276;-90
2021/08/21 06:03:06;;;;;;;5.77;5.07;;;14.20;99.90;;;;;;5074518;28;20650;-89
2021/08/21 06:05:32;;;;;;;8.30;5.70;;;14.30;99.90;;;;;;5075023;28;20181;-90
2021/08/21 06:07:59;;;;;;;8.47;5.60;;;14.40;99.90;;;;;;5076772;28;20222;-89
2021/08/21 06:10:25;;;;;;;6.83;5.53;;;14.50;99.90;;;;;;5078731;28;20177;-89
2021/08/21 06:12:50;;;;;;;7.07;5.43;;;14.60;99.90;;;;;;5078923;28;20761;-89
2021/08/21 06:15:16;;;;;;;6.40;5.23;;;14.70;99.90;;;;;;5078299;28;20176;-90
2021/08/21 06:17:41;;;;;;;6.07;5.00;;;14.80;99.90;;;;;;5078779;28;20203;-90
2021/08/21 06:20:07;;;;;;;7.27;5.50;;;14.90;99.90;;;;;;5078540;28;20199;-89
2021/08/21 06:22:33;;;;;;;7.30;5.30;;;;;;;;;;5078913;28;20180;-89
2021/08/21 06:25:02;;;;;;;6.43;5.17;;;15.00;99.90;;;;;;5078920;28;20212;-90
2021/08/21 06:27:27;;;;;;;6.33;5.43;;;15.20;99.90;;;;;;5079150;28;20193;-90
2021/08/21 06:29:53;;;;;;;8.33;5.50;;;15.30;99.90;;;;;;5079372;28;20322;-90
2021/08/21 06:32:19;;;;;;;5.77;5.17;;;15.40;99.90;;;;;;5077926;28;20220;-88
2021/08/21 06:34:44;;;;;;;7.77;5.40;;;15.50;99.90;;;;;;5078199;28;20209;-89
2021/08/21 06:37:10;;;;;;;7.37;5.20;;;15.60;99.90;;;;;;5077852;28;20192;-88
2021/08/21 06:39:36;;;;;;;4.90;4.40;;;15.70;99.90;;;;;;5078609;28;20189;-88
2021/08/21 06:42:02;;;;;;;7.83;5.10;;;15.70;99.90;;;;;;5078433;28;20204;-88
2021/08/21 06:44:28;;;;;;;6.80;5.17;;;15.80;99.90;;;;;;5080185;28;20208;-88
2021/08/21 06:46:53;;;;;;;6.73;4.87;;;15.90;99.90;;;;;;5079109;28;20200;-88
2021/08/21 06:49:19;;;;;;;6.83;5.67;;;16.10;99.90;;;;;;5079550;28;20181;-88
2021/08/21 06:51:45;;;;;;;6.63;5.17;;;16.10;99.90;;;;;;5078256;28;20279;-88
2021/08/21 06:54:10;;;;;;;6.40;4.60;;;16.20;99.90;;;;;;5079577;28;20177;-88
2021/08/21 06:56:36;;;;;;;6.00;4.40;;;16.30;99.90;;;;;;5079081;28;20185;-88
2021/08/21 06:59:01;;;;;;;8.40;4.67;;;16.40;99.90;;;;;;5077448;28;20595;-88
2021/08/21 07:01:29;;;;;;;10.13;4.70;;;16.50;99.90;;;;;;5077049;28;20240;-88
2021/08/21 07:03:55;;;;;;;5.47;4.60;;;16.50;99.90;;;;;;5076773;28;20239;-88
2021/08/21 07:06:20;;;;;;;7.43;4.80;;;16.60;99.90;;;;;;5078774;28;20251;-87
2021/08/21 07:08:46;;;;;;;6.20;5.03;;;16.70;99.90;;;;;;5078238;28;20610;-89
2021/08/21 07:11:11;;;;;;;6.30;5.10;;;16.70;99.90;;;;;;5076828;28;20670;-89
2021/08/21 07:13:37;;;;;;;6.17;4.73;;;16.80;99.90;;;;;;5078076;28;20169;-89
2021/08/21 07:16:03;;;;;;;5.87;4.63;;;16.90;99.90;;;;;;5076858;28;20177;-88
2021/08/21 07:18:29;;;;;;;5.60;4.43;;;16.90;99.90;;;;;;5077026;28;20270;-88
2021/08/21 07:20:55;;;;;;;6.47;5.07;;;17.00;99.90;;;;;;5078111;28;20221;-87
2021/08/21 07:23:20;;;;;;;6.00;4.80;;;17.10;99.90;;;;;;5076485;28;20184;-88
2021/08/21 07:25:46;;;;;;;7.40;4.03;;;17.30;99.90;;;;;;5076793;28;20646;-88
2021/08/21 07:28:12;;;;;;;6.93;5.10;;;17.40;99.90;;;;;;5077920;28;20235;-88
2021/08/21 07:30:38;;;;;;;6.20;4.80;;;17.60;99.90;;;;;;5077002;28;20184;-89
2021/08/21 07:33:03;;;;;;;4.87;4.30;;;17.80;99.90;;;;;;5076658;28;20192;-88
2021/08/21 07:35:29;;;;;;;6.70;4.60;;;17.90;99.90;;;;;;5077127;28;20179;-87
2021/08/21 07:37:55;;;;;;;5.17;4.67;;;18.00;99.90;;;;;;5078056;28;20199;-87
2021/08/21 07:40:21;;;;;;;6.87;4.60;;;18.10;99.90;;;;;;5077308;28;20268;-88
2021/08/21 07:42:46;;;;;;;5.40;4.77;;;18.20;99.90;;;;;;5079129;28;20215;-87
2021/08/21 07:45:13;;;;;;;5.07;4.57;;;18.30;99.90;;;;;;5077610;28;20214;-87
2021/08/21 07:47:38;;;;;;;5.70;4.87;;;18.40;99.90;;;;;;5077723;28;20196;-87
2021/08/21 07:50:08;;;;;;;5.60;4.60;;;18.50;99.90;;;;;;5083766;28;20152;-87
2021/08/21 07:52:33;;;;;;;5.70;4.90;;;18.60;99.90;;;;;;5085452;28;20197;-87
2021/08/21 07:54:59;;;;;;;5.63;4.70;;;18.70;99.90;;;;;;5079300;28;20211;-87
2021/08/21 07:57:25;;;;;;;5.27;4.77;;;18.90;99.90;;;;;;5079273;28;20219;-87
2021/08/21 07:59:50;;;;;;;5.30;4.77;;;19.10;99.90;;;;;;5082475;28;20187;-87
2021/08/21 08:02:16;;;;;;;6.40;4.97;;;19.20;99.90;;;;;;5081480;28;20671;-87
2021/08/21 08:04:41;;;;;;;8.07;5.20;;;19.40;99.90;;;;;;5082259;28;20179;-87
2021/08/21 08:07:07;;;;;;;5.80;4.77;;;19.40;99.90;;;;;;5080502;28;20219;-87
2021/08/21 08:09:33;;;;;;;7.40;4.90;;;19.50;99.90;;;;;;5063728;28;20177;-87
2021/08/21 08:11:58;;;;;;;5.27;4.77;;;19.70;99.90;;;;;;5057473;28;20215;-87
2021/08/21 08:14:24;;;;;;;5.67;5.00;;;19.80;99.90;;;;;;5056493;28;20172;-88
2021/08/21 08:16:50;;;;;;;5.87;5.07;;;20.00;99.90;;;;;;5055587;28;20194;-87
2021/08/21 08:19:15;;;;;;;5.00;4.47;;;20.20;99.90;;;;;;5056583;28;20187;-88
2021/08/21 08:21:41;;;;;;;5.17;4.67;;;20.50;99.90;;;;;;5056147;28;20584;-88
2021/08/21 08:24:07;;;;;;;5.10;4.60;;;20.70;99.90;;;;;;5056960;28;20197;-88
2021/08/21 08:26:33;;;;;;;6.07;5.10;;;20.90;99.90;;;;;;5057054;28;20194;-87
2021/08/21 08:28:58;;;;;;;5.50;4.93;;;21.10;99.90;;;;;;5056349;28;20331;-88
2021/08/21 08:31:30;;;;;;;6.53;4.63;;;21.30;99.90;;;;;;5057251;28;20247;-88
2021/08/21 08:33:55;;;;;;;5.63;4.93;;;21.30;99.90;;;;;;5056256;28;20196;-88
2021/08/21 08:36:21;;;;;;;5.50;4.97;;;21.40;99.90;;;;;;5059876;28;20185;-87
2021/08/21 08:38:47;;;;;;;5.90;5.07;;;21.50;99.90;;;;;;5055894;28;20190;-87
2021/08/21 08:41:12;;;;;;;8.67;5.10;;;21.60;99.90;;;;;;5057911;28;20216;-87
2021/08/21 08:43:42;;;;;;;5.53;4.73;;;21.60;99.90;;;;;;5057542;28;20566;-88
2021/08/21 08:46:09;;;;;;;8.63;5.23;;;21.60;99.90;;;;;;5057477;28;20236;-88
2021/08/21 08:48:36;;;;;;;6.10;4.63;;;21.60;99.90;;;;;;5055351;28;20731;-88
2021/08/21 08:51:02;;;;;;;7.40;4.83;;;21.70;99.90;;;;;;5056399;28;20308;-88
2021/08/21 08:53:28;;;;;;;6.17;5.57;;;21.90;99.90;;;;;;5056156;28;20178;-87
2021/08/21 08:55:53;;;;;;;8.90;5.20;;;22.00;99.90;;;;;;5057748;28;20190;-87
2021/08/21 08:58:19;;;;;;;5.63;5.00;;;22.20;99.90;;;;;;5057396;28;20193;-87
2021/08/21 09:00:45;;;;;;;5.97;5.17;;;22.50;99.90;;;;;;5061323;28;20240;-88
2021/08/21 09:03:26;;;;;;;6.63;5.20;;;22.80;99.90;;;;;;5057276;28;20263;-87
2021/08/21 09:05:53;;;;;;;5.97;4.80;;;23.10;99.90;;;;;;5061235;28;20167;-87
2021/08/21 09:08:35;;;;;;;5.17;4.43;;;23.40;99.90;;;;;;5060514;28;20192;-87
2021/08/21 09:11:17;;;;;;;6.00;4.73;;;23.60;99.90;;;;;;5060587;28;20230;-88
2021/08/21 09:13:43;;;;;;;6.30;5.23;;;23.70;99.90;;;;;;5060746;28;20171;-86
2021/08/21 09:16:09;;;;;;;6.70;5.30;;;23.80;99.90;;;;;;5060150;28;20190;-88
2021/08/21 09:18:35;;;;;;;7.67;5.27;;;24.00;99.90;;;;;;5060175;28;20181;-88
2021/08/21 09:21:04;;;;;;;6.17;4.63;;;24.10;99.90;;;;;;5060270;28;20204;-85
2021/08/21 09:23:30;;;;;;;5.40;4.90;;;24.20;99.90;;;;;;5057227;28;20182;-87
2021/08/21 09:26:07;;;;;;;5.07;4.57;;;24.20;99.90;;;;;;5056967;28;20181;-87
2021/08/21 09:28:34;;;;;;;5.20;4.70;;;24.40;99.90;;;;;;5056360;28;20183;-88
2021/08/21 09:31:12;;;;;;;5.43;4.80;;;24.40;99.90;;;;;;5057049;28;20174;-88
2021/08/21 09:33:41;;;;;;;5.47;4.90;;;24.60;99.90;;;;;;5055509;28;20648;-88
2021/08/21 09:36:12;;;;;;;5.20;4.50;;;24.80;99.90;;;;;;5055226;28;20177;-87
2021/08/21 09:38:38;;;;;;;7.90;4.67;;;24.90;99.90;;;;;;5055523;28;20196;-87
2021/08/21 09:41:07;;;;;;;5.73;4.53;;;25.00;99.90;;;;;;5057302;28;20642;-88
2021/08/21 09:43:35;;;;;;;5.70;4.63;;;25.00;99.90;;;;;;5060105;28;20181;-87
2021/08/21 09:46:19;;;;;;;5.17;4.57;;;25.10;99.90;;;;;;5058815;28;20271;-87
2021/08/21 09:49:06;;;;;;;7.60;4.83;;;25.20;99.90;;;;;;5059593;28;20226;-87
2021/08/21 09:51:43;;;;;;;5.77;4.43;;;25.30;99.90;;;;;;5058318;28;20211;-88
2021/08/21 09:54:15;;;;;;;7.13;4.50;;;25.60;99.90;;;;;;5058401;28;20168;-86
2021/08/21 09:56:51;;;;;;;4.33;3.83;;;25.80;99.90;;;;;;5059462;28;20196;-85
2021/08/21 09:59:16;;;;;;;5.23;4.40;;;25.90;99.90;;;;;;5062728;28;20516;-85
2021/08/21 10:01:45;;;;;;;7.33;4.63;;;26.00;99.90;;;;;;5061258;28;20194;-85
2021/08/21 10:04:11;;;;;;;4.87;4.13;;;26.20;99.90;;;;;;5059207;28;20650;-88
2021/08/21 10:06:39;;;;;;;5.13;4.50;;;26.20;99.90;;;;;;5057851;28;20208;-86
2021/08/21 10:09:07;;;;;;;5.37;4.60;;;26.00;99.90;;;;;;5058348;28;20216;-87
2021/08/21 10:11:33;;;;;;;7.00;4.70;;;26.00;99.90;;;;;;5057073;28;20206;-86
2021/08/21 10:13:59;;;;;;;7.13;4.73;;;26.00;99.90;;;;;;5058231;28;20175;-87
2021/08/21 10:16:25;;;;;;;5.97;4.60;;;26.00;99.90;;;;;;5040591;28;20182;-87
2021/08/21 10:18:53;;;;;;;5.07;4.47;;;26.20;99.90;;;;;;5057871;28;20180;-87
2021/08/21 10:21:19;;;;;;;6.07;4.70;;;26.40;99.90;;;;;;5057938;28;20206;-87
2021/08/21 10:23:47;;;;;;;5.50;4.77;;;26.70;99.90;;;;;;5057789;28;20666;-86
2021/08/21 10:26:32;;;;;;;4.97;4.47;;;26.80;99.90;;;;;;5058094;28;20203;-86
2021/08/21 10:28:59;;;;;;;5.03;4.30;;;26.70;99.90;;;;;;5056951;28;20191;-87
2021/08/21 10:31:39;;;;;;;7.23;4.60;;;26.70;99.90;;;;;;5056985;28;20209;-87
2021/08/21 10:34:07;;;;;;;5.00;4.10;;;26.60;99.90;;;;;;5057928;28;20256;-85
2021/08/21 10:36:44;;;;;;;4.47;4.03;;;26.70;99.90;;;;;;5057500;28;20262;-88
2021/08/21 10:39:40;;;;;;;4.87;4.37;;;26.60;99.90;;;;;;5056955;28;20191;-87
2021/08/21 10:42:24;;;;;;;6.07;5.47;;;26.70;99.90;;;;;;5049313;28;20288;-86
2021/08/21 10:44:51;;;;;;;5.40;3.93;;;26.80;99.90;;;;;;5055551;28;20674;-86
2021/08/21 10:47:33;;;;;;;4.83;3.80;;;27.00;99.90;;;;;;5056473;28;20211;-87
2021/08/21 10:50:13;;;;;;;5.80;4.93;;;27.10;99.90;;;;;;5057547;28;20183;-87
2021/08/21 10:52:53;;;;;;;6.93;5.30;;;27.20;99.90;;;;;;5056836;28;20192;-87
2021/08/21 10:55:28;;;;;;;6.53;4.80;;;27.30;99.90;;;;;;5057073;28;20256;-87
2021/08/21 10:57:58;;;;;;;5.23;4.67;;;27.40;99.90;;;;;;5056968;28;20194;-87
2021/08/21 11:00:39;;;;;;;7.47;4.50;;;27.50;99.90;;;;;;5057579;28;20165;-86
2021/08/21 11:03:05;;;;;;;5.93;4.37;;;27.50;99.90;;;;;;5057329;28;20188;-87
2021/08/21 11:05:57;;;;;;;5.17;4.20;;;27.60;99.90;;;;;;5062695;28;20201;-87
2021/08/21 11:08:31;;;;;;;5.47;4.80;;;27.70;99.90;;;;;;5058333;28;20216;-87
2021/08/21 11:11:14;;;;;;;6.47;4.77;;;27.70;99.90;;;;;;5058348;28;20183;-88
2021/08/21 11:13:54;;;;;;;6.97;5.03;;;27.80;99.90;;;;;;5056148;28;20166;-86
2021/08/21 11:16:21;;;;;;;6.83;4.80;;;27.80;99.90;;;;;;5056643;28;20170;-87
2021/08/21 11:18:52;;;;;;;5.10;4.60;;;27.90;99.90;;;;;;5056359;28;20212;-87
2021/08/21 11:21:34;;;;;;;5.00;4.23;;;27.50;99.90;;;;;;5056346;28;20175;-87
2021/08/21 11:24:00;;;;;;;8.87;7.97;;;27.60;99.90;;;;;;5055801;28;20212;-86
2021/08/21 11:26:25;;;;;;;9.17;4.93;;;27.70;99.90;;;;;;5057733;28;20706;-87
2021/08/21 11:29:09;;;;;;;5.30;4.27;;;27.80;99.90;;;;;;5056604;28;20267;-86
2021/08/21 11:31:54;;;;;;;7.97;7.13;;;28.00;99.90;;;;;;5057023;28;20204;-86
2021/08/21 11:34:21;;;;;;;6.97;5.30;;;28.10;99.90;;;;;;5055657;28;20181;-85
2021/08/21 11:36:47;;;;;;;6.13;4.90;;;28.30;99.90;;;;;;5055439;28;20315;-86
2021/08/21 11:39:13;;;;;;;5.97;3.83;;;28.00;99.90;;;;;;5054908;28;20190;-87
2021/08/21 11:41:51;;;;;;;4.80;4.33;;;28.00;99.90;;;;;;5056367;28;20175;-87
2021/08/21 11:44:26;;;;;;;4.73;3.63;;;28.20;99.90;;;;;;5056010;28;20166;-87
2021/08/21 11:47:04;;;;;;;7.40;4.20;;;28.40;99.90;;;;;;5055245;28;20212;-86
2021/08/21 11:49:30;;;;;;;5.73;3.67;;;28.50;99.90;;;;;;5056071;28;20174;-86
2021/08/21 11:52:00;;;;;;;4.33;3.80;;;28.60;99.90;;;;;;5054907;28;20296;-86
2021/08/21 11:54:27;;;;;;;4.20;3.80;;;28.70;99.90;;;;;;5055889;28;20162;-87
2021/08/21 11:57:00;;;;;;;7.13;6.43;;;28.70;99.90;;;;;;5054686;28;20221;-87
2021/08/21 11:59:25;;;;;;;4.87;4.37;;;28.90;99.90;;;;;;5055048;28;20250;-88
2021/08/21 12:02:00;;;;;;;5.13;3.77;;;29.00;99.90;;;;;;5055101;28;20669;-89
2021/08/21 12:04:27;;;;;;;4.40;3.97;;;29.00;99.90;;;;;;5055869;28;20251;-89
2021/08/21 12:06:52;;;;;;;8.77;3.63;;;29.00;99.90;;;;;;5056379;28;20266;-89
2021/08/21 12:09:18;;;;;;;4.73;3.50;;;29.10;99.90;;;;;;5056291;28;20181;-89
2021/08/21 12:11:46;;;;;;;5.23;3.90;;;29.20;99.90;;;;;;5056079;28;20253;-88
2021/08/21 12:14:13;;;;;;;4.27;3.37;;;29.30;99.90;;;;;;5056992;28;20181;-89
2021/08/21 12:16:40;;;;;;;4.87;3.10;;;29.30;99.90;;;;;;5056824;28;20565;-88
2021/08/21 12:19:06;;;;;;;5.17;3.77;;;29.50;99.90;;;;;;5055759;28;20689;-88
2021/08/21 12:21:33;;;;;;;4.33;3.93;;;29.50;99.90;;;;;;5054568;28;20187;-87
2021/08/21 12:23:58;;;;;;;6.10;3.40;;;29.50;99.90;;;;;;5054380;28;20182;-88
2021/08/21 12:26:33;;;;;;;4.43;3.30;;;29.50;99.90;;;;;;5054596;28;20185;-88
2021/08/21 12:28:59;;;;;;;5.90;3.63;;;29.60;99.90;;;;;;5055085;28;20184;-87
2021/08/21 12:31:41;;;;;;;4.00;3.67;;;29.40;99.00;;;;;;5055730;28;20250;-88
2021/08/21 12:34:10;;;;;;;4.00;3.57;;;29.30;99.90;;;;;;5057084;28;20208;-89
2021/08/21 12:36:43;;;;;;;4.20;3.80;;;29.20;99.90;;;;;;5060251;28;20197;-89
2021/08/21 12:39:18;;;;;;;5.33;3.50;;;29.10;99.60;;;;;;5055810;28;20274;-86
2021/08/21 12:42:00;;;;;;;4.87;3.10;;;29.10;99.90;;;;;;5055318;28;20223;-86
2021/08/21 12:44:36;;;;;;;4.60;3.40;;;29.30;99.20;;;;;;5056596;28;20178;-87
2021/08/21 12:47:13;;;;;;;4.13;3.63;;;29.40;97.90;;;;;;5057593;28;20201;-88
2021/08/21 12:49:47;;;;;;;3.50;3.20;;;29.30;99.90;;;;;;5057471;28;20170;-88
2021/08/21 12:52:25;;;;;;;4.70;3.50;;;29.50;99.90;;;;;;5056310;28;20206;-86
2021/08/21 12:55:03;;;;;;;4.03;3.40;;;29.70;99.90;;;;;;5055205;28;20177;-88